createdAt,value
2018-12-23T00:00:37.873Z,7.99
2018-12-23T00:01:38.469Z,7.94
2018-12-23T00:02:39.063Z,7.98
2018-12-23T00:03:39.660Z,8.06
2018-12-23T00:04:40.251Z,8.09
2018-12-23T00:05:40.844Z,8.01
2018-12-23T00:06:41.521Z,8.07
2018-12-23T00:07:42.030Z,8.02
2018-12-23T00:08:42.625Z,7.92
2018-12-23T00:09:43.212Z,8.01
2018-12-23T00:10:43.819Z,8.01
2018-12-23T00:11:44.404Z,7.94
2018-12-23T00:12:45.001Z,7.99
2018-12-23T00:13:45.600Z,7.89
2018-12-23T00:14:46.188Z,8.01
2018-12-23T00:15:46.785Z,7.97
2018-12-23T00:16:47.381Z,7.95
2018-12-23T00:17:47.967Z,7.91
2018-12-23T00:18:48.554Z,7.98
2018-12-23T00:19:49.153Z,7.95
2018-12-23T00:20:49.749Z,7.95
2018-12-23T00:21:50.346Z,7.95
2018-12-23T00:22:50.942Z,7.92
2018-12-23T00:23:51.537Z,7.95
2018-12-23T00:24:52.137Z,7.99
2018-12-23T00:25:52.732Z,7.98
2018-12-23T00:26:53.530Z,8.02
2018-12-23T00:27:53.922Z,7.95
2018-12-23T00:28:54.516Z,7.95
2018-12-23T00:29:55.111Z,7.92
2018-12-23T00:30:55.708Z,7.92
2018-12-23T00:31:56.305Z,7.91
2018-12-23T00:32:56.905Z,7.99
2018-12-23T00:33:57.506Z,7.97
2018-12-23T00:34:58.106Z,7.92
2018-12-23T00:35:58.703Z,7.91
2018-12-23T00:36:59.292Z,7.98
2018-12-23T00:37:59.883Z,7.99
2018-12-23T00:39:00.480Z,7.92
2018-12-23T00:40:01.070Z,8.01
2018-12-23T00:41:01.667Z,8.01
2018-12-23T00:42:02.266Z,7.92
2018-12-23T00:43:02.851Z,8.04
2018-12-23T00:44:03.447Z,7.92
2018-12-23T00:45:04.034Z,7.99
2018-12-23T00:46:04.632Z,7.97
2018-12-23T00:47:05.230Z,7.94
2018-12-23T00:48:05.825Z,8.06
2018-12-23T00:49:06.411Z,8.02
2018-12-23T00:50:07.008Z,7.99
2018-12-23T00:51:07.607Z,8.01
2018-12-23T00:52:08.210Z,7.95
2018-12-23T00:53:08.805Z,8.02
2018-12-23T00:54:09.398Z,7.92
2018-12-23T00:55:09.996Z,7.94
2018-12-23T00:56:10.588Z,7.95
2018-12-23T00:57:11.185Z,8.02
2018-12-23T00:58:11.783Z,7.95
2018-12-23T00:59:12.381Z,7.92
2018-12-23T01:00:57.184Z,7.97
2018-12-23T01:01:57.784Z,7.92
2018-12-23T01:02:58.370Z,7.94
2018-12-23T01:03:58.965Z,7.97
2018-12-23T01:04:59.551Z,7.95
2018-12-23T01:06:00.150Z,7.91
2018-12-23T01:07:00.739Z,7.97
2018-12-23T01:08:01.339Z,7.97
2018-12-23T01:09:01.938Z,7.97
2018-12-23T01:10:02.537Z,7.94
2018-12-23T01:11:03.128Z,7.95
2018-12-23T01:12:03.726Z,7.94
2018-12-23T01:13:04.321Z,7.92
2018-12-23T01:14:04.917Z,7.94
2018-12-23T01:15:05.504Z,7.97
2018-12-23T01:16:06.128Z,7.99
2018-12-23T01:17:06.701Z,7.92
2018-12-23T01:18:07.299Z,8.02
2018-12-23T01:19:07.889Z,7.91
2018-12-23T01:20:08.478Z,7.91
2018-12-23T01:21:09.079Z,7.81
2018-12-23T01:22:09.673Z,7.92
2018-12-23T01:23:10.268Z,7.86
2018-12-23T01:24:10.868Z,7.84
2018-12-23T01:25:11.453Z,7.86
2018-12-23T01:26:12.053Z,7.80
2018-12-23T01:27:12.643Z,7.86
2018-12-23T01:28:13.239Z,7.81
2018-12-23T01:29:13.836Z,7.80
2018-12-23T01:30:14.426Z,7.83
2018-12-23T01:31:15.051Z,7.80
2018-12-23T01:32:15.613Z,7.70
2018-12-23T01:33:16.200Z,7.80
2018-12-23T01:34:16.800Z,7.69
2018-12-23T01:35:17.386Z,7.72
2018-12-23T01:36:17.984Z,7.72
2018-12-23T01:37:18.577Z,7.80
2018-12-23T01:38:19.172Z,7.72
2018-12-23T01:39:19.766Z,7.80
2018-12-23T01:40:20.367Z,7.81
2018-12-23T01:41:20.961Z,7.73
2018-12-23T01:42:21.560Z,7.69
2018-12-23T01:43:22.156Z,7.72
2018-12-23T01:44:22.750Z,7.72
2018-12-23T01:45:23.345Z,7.76
2018-12-23T01:46:23.938Z,7.76
2018-12-23T01:47:24.539Z,7.70
2018-12-23T01:48:25.134Z,7.72
2018-12-23T01:49:25.732Z,7.77
2018-12-23T01:50:26.329Z,7.74
2018-12-23T01:51:26.919Z,7.70
2018-12-23T01:52:27.514Z,7.76
2018-12-23T01:53:28.109Z,7.72
2018-12-23T01:54:28.705Z,7.70
2018-12-23T01:55:29.300Z,7.74
2018-12-23T01:56:29.895Z,7.74
2018-12-23T01:57:30.496Z,7.74
2018-12-23T01:58:31.096Z,7.73
2018-12-23T01:59:31.689Z,7.79
2018-12-23T02:00:32.279Z,7.70
2018-12-23T02:01:32.877Z,7.73
2018-12-23T02:02:33.467Z,7.58
2018-12-23T02:03:34.053Z,7.66
2018-12-23T02:04:34.651Z,7.64
2018-12-23T02:05:35.241Z,7.69
2018-12-23T02:06:35.830Z,7.74
2018-12-23T02:07:36.429Z,7.69
2018-12-23T02:08:37.024Z,7.66
2018-12-23T02:09:37.623Z,7.55
2018-12-23T02:10:38.220Z,7.60
2018-12-23T02:11:38.814Z,7.53
2018-12-23T02:12:39.412Z,7.57
2018-12-23T02:13:40.009Z,7.66
2018-12-23T02:14:40.604Z,7.73
2018-12-23T02:15:41.194Z,7.74
2018-12-23T02:16:41.795Z,7.77
2018-12-23T02:17:42.393Z,7.74
2018-12-23T02:18:42.992Z,7.69
2018-12-23T02:19:43.590Z,7.86
2018-12-23T02:20:44.206Z,7.81
2018-12-23T02:21:44.801Z,7.86
2018-12-23T02:22:45.399Z,7.84
2018-12-23T02:23:45.995Z,7.97
2018-12-23T02:24:46.592Z,7.92
2018-12-23T02:25:47.180Z,7.89
2018-12-23T02:26:47.777Z,7.91
2018-12-23T02:27:48.375Z,7.81
2018-12-23T02:28:48.964Z,7.95
2018-12-23T02:29:49.549Z,7.91
2018-12-23T02:30:50.151Z,7.92
2018-12-23T02:31:50.742Z,7.99
2018-12-23T02:32:51.337Z,7.91
2018-12-23T02:33:51.928Z,7.95
2018-12-23T02:34:52.516Z,7.92
2018-12-23T02:35:55.808Z,7.99
2018-12-23T02:36:53.704Z,8.01
2018-12-23T02:37:54.293Z,7.95
2018-12-23T02:38:54.892Z,7.94
2018-12-23T02:39:55.478Z,7.94
2018-12-23T02:40:56.103Z,7.92
2018-12-23T02:41:56.670Z,7.91
2018-12-23T02:42:57.263Z,7.94
2018-12-23T02:43:57.862Z,7.92
2018-12-23T02:44:58.461Z,8.01
2018-12-23T02:45:59.058Z,7.97
2018-12-23T02:46:59.652Z,7.94
2018-12-23T02:48:00.249Z,7.99
2018-12-23T02:49:00.880Z,8.07
2018-12-23T02:50:01.427Z,8.01
2018-12-23T02:51:02.024Z,7.95
2018-12-23T02:52:02.614Z,8.01
2018-12-23T02:53:03.318Z,8.06
2018-12-23T02:54:03.824Z,8.01
2018-12-23T02:55:04.418Z,7.98
2018-12-23T02:56:05.009Z,7.99
2018-12-23T02:57:05.610Z,8.02
2018-12-23T02:58:06.202Z,8.12
2018-12-23T02:59:06.797Z,8.02
2018-12-23T03:00:07.387Z,7.98
2018-12-23T03:01:07.983Z,8.07
2018-12-23T03:02:08.569Z,7.99
2018-12-23T03:03:09.170Z,8.10
2018-12-23T03:04:09.763Z,8.06
2018-12-23T03:05:10.362Z,8.06
2018-12-23T03:06:10.958Z,8.07
2018-12-23T03:07:11.553Z,8.09
2018-12-23T03:08:12.178Z,8.10
2018-12-23T03:09:12.750Z,8.19
2018-12-23T03:10:13.335Z,8.06
2018-12-23T03:11:13.932Z,8.15
2018-12-23T03:12:14.528Z,8.20
2018-12-23T03:13:15.125Z,8.13
2018-12-23T03:14:15.714Z,8.25
2018-12-23T03:15:16.312Z,8.16
2018-12-23T03:16:16.907Z,8.25
2018-12-23T03:17:17.561Z,8.23
2018-12-23T03:18:18.092Z,8.33
2018-12-23T03:19:18.687Z,8.25
2018-12-23T03:20:19.269Z,8.33
2018-12-23T03:21:19.865Z,8.31
2018-12-23T03:22:20.466Z,8.30
2018-12-23T03:23:21.058Z,8.37
2018-12-23T03:24:21.659Z,8.40
2018-12-23T03:25:22.262Z,8.41
2018-12-23T03:26:22.850Z,8.46
2018-12-23T03:27:23.457Z,8.46
2018-12-23T03:28:24.044Z,8.48
2018-12-23T03:29:24.644Z,8.40
2018-12-23T03:30:25.253Z,8.58
2018-12-23T03:31:25.838Z,8.56
2018-12-23T03:32:26.439Z,8.53
2018-12-23T03:33:27.035Z,8.56
2018-12-23T03:34:27.635Z,8.52
2018-12-23T03:35:28.233Z,8.55
2018-12-23T03:36:28.837Z,8.55
2018-12-23T03:37:29.421Z,8.60
2018-12-23T03:38:30.019Z,8.68
2018-12-23T03:39:30.616Z,8.68
2018-12-23T03:40:31.202Z,8.66
2018-12-23T03:41:31.801Z,8.70
2018-12-23T03:42:32.399Z,8.67
2018-12-23T03:43:32.988Z,8.68
2018-12-23T03:44:33.586Z,8.67
2018-12-23T03:45:34.184Z,8.68
2018-12-23T03:46:34.774Z,8.70
2018-12-23T03:47:35.363Z,8.63
2018-12-23T03:48:35.963Z,8.63
2018-12-23T03:49:36.576Z,8.70
2018-12-23T03:50:37.159Z,8.73
2018-12-23T03:51:37.758Z,8.68
2018-12-23T03:52:38.356Z,8.77
2018-12-23T03:53:38.949Z,8.70
2018-12-23T03:54:39.546Z,8.74
2018-12-23T03:55:40.132Z,8.71
2018-12-23T03:56:40.723Z,8.76
2018-12-23T03:57:41.313Z,8.76
2018-12-23T03:58:41.903Z,8.73
2018-12-23T03:59:42.499Z,8.76
2018-12-23T04:00:43.108Z,8.74
2018-12-23T04:01:43.695Z,8.84
2018-12-23T04:02:44.280Z,8.73
2018-12-23T04:03:44.874Z,8.77
2018-12-23T04:04:45.467Z,8.78
2018-12-23T04:05:46.066Z,8.77
2018-12-23T04:06:46.653Z,8.81
2018-12-23T04:07:47.251Z,8.76
2018-12-23T04:08:47.838Z,8.78
2018-12-23T04:09:48.441Z,8.77
2018-12-23T04:10:49.029Z,8.77
2018-12-23T04:11:49.626Z,8.81
2018-12-23T04:12:50.224Z,8.76
2018-12-23T04:13:50.821Z,8.71
2018-12-23T04:14:51.410Z,8.71
2018-12-23T04:15:52.014Z,8.71
2018-12-23T04:16:52.604Z,8.74
2018-12-23T04:17:53.198Z,8.77
2018-12-23T04:18:53.811Z,8.77
2018-12-23T04:19:54.385Z,8.81
2018-12-23T04:20:54.983Z,8.71
2018-12-23T04:21:55.570Z,8.68
2018-12-23T04:22:56.168Z,8.73
2018-12-23T04:23:56.764Z,8.67
2018-12-23T04:24:57.357Z,8.66
2018-12-23T04:25:57.945Z,8.66
2018-12-23T04:26:58.544Z,8.59
2018-12-23T04:27:59.143Z,8.67
2018-12-23T04:28:59.741Z,8.66
2018-12-23T04:30:00.415Z,8.60
2018-12-23T04:31:00.927Z,8.64
2018-12-23T04:32:01.525Z,8.66
2018-12-23T04:33:02.127Z,8.70
2018-12-23T04:34:02.731Z,8.70
2018-12-23T04:35:03.317Z,8.70
2018-12-23T04:36:03.911Z,8.67
2018-12-23T04:37:04.511Z,8.63
2018-12-23T04:38:05.110Z,8.64
2018-12-23T04:39:05.707Z,8.64
2018-12-23T04:40:06.320Z,8.71
2018-12-23T04:41:06.902Z,8.70
2018-12-23T04:42:07.490Z,8.81
2018-12-23T04:43:08.078Z,8.71
2018-12-23T04:44:08.676Z,8.76
2018-12-23T04:45:09.277Z,8.74
2018-12-23T04:46:09.879Z,8.82
2018-12-23T04:47:10.473Z,8.76
2018-12-23T04:48:11.063Z,8.77
2018-12-23T04:49:11.652Z,8.71
2018-12-23T04:50:12.249Z,8.73
2018-12-23T04:51:12.849Z,8.67
2018-12-23T04:52:13.443Z,8.68
2018-12-23T04:53:14.034Z,8.76
2018-12-23T04:54:14.633Z,8.73
2018-12-23T04:55:15.231Z,8.76
2018-12-23T04:56:15.828Z,8.77
2018-12-23T04:57:16.429Z,8.76
2018-12-23T04:58:17.041Z,8.73
2018-12-23T04:59:17.622Z,8.73
2018-12-23T05:00:18.223Z,8.68
2018-12-23T05:01:18.820Z,8.71
2018-12-23T05:02:19.422Z,8.71
2018-12-23T05:03:20.009Z,8.66
2018-12-23T05:04:20.599Z,8.70
2018-12-23T05:05:21.196Z,8.71
2018-12-23T05:06:21.786Z,8.67
2018-12-23T05:07:22.381Z,8.59
2018-12-23T05:08:22.979Z,8.71
2018-12-23T05:09:23.580Z,8.70
2018-12-23T05:10:24.177Z,8.70
2018-12-23T05:11:24.767Z,8.63
2018-12-23T05:12:25.360Z,8.70
2018-12-23T05:13:25.949Z,8.76
2018-12-23T05:14:26.546Z,8.67
2018-12-23T05:15:27.143Z,8.66
2018-12-23T05:16:27.734Z,8.82
2018-12-23T05:17:28.320Z,8.73
2018-12-23T05:18:28.920Z,8.78
2018-12-23T05:19:29.516Z,8.73
2018-12-23T05:20:30.116Z,8.78
2018-12-23T05:21:30.728Z,8.81
2018-12-23T05:22:31.316Z,8.74
2018-12-23T05:23:31.905Z,8.85
2018-12-23T05:24:32.498Z,8.78
2018-12-23T05:25:33.085Z,8.84
2018-12-23T05:26:33.685Z,8.86
2018-12-23T05:27:34.281Z,8.92
2018-12-23T05:28:34.876Z,8.85
2018-12-23T05:29:35.468Z,8.92
2018-12-23T05:30:36.064Z,8.89
2018-12-23T05:31:36.652Z,8.92
2018-12-23T05:32:37.254Z,8.92
2018-12-23T05:33:37.835Z,8.98
2018-12-23T05:34:38.433Z,8.93
2018-12-23T05:35:39.029Z,8.91
2018-12-23T05:36:39.627Z,8.89
2018-12-23T05:37:40.216Z,8.96
2018-12-23T05:38:40.815Z,8.95
2018-12-23T05:39:41.418Z,8.95
2018-12-23T05:40:42.009Z,8.95
2018-12-23T05:41:42.598Z,8.95
2018-12-23T05:42:43.216Z,8.95
2018-12-23T05:43:43.790Z,8.95
2018-12-23T05:44:44.387Z,8.95
2018-12-23T05:45:44.987Z,8.98
2018-12-23T05:46:45.593Z,9.00
2018-12-23T05:47:46.182Z,9.01
2018-12-23T05:48:46.776Z,9.08
2018-12-23T05:49:47.399Z,9.00
2018-12-23T05:50:47.988Z,8.95
2018-12-23T05:51:48.584Z,9.08
2018-12-23T05:52:49.184Z,9.14
2018-12-23T05:53:49.781Z,8.96
2018-12-23T05:54:50.376Z,9.01
2018-12-23T05:55:50.973Z,9.04
2018-12-23T05:56:51.567Z,9.04
2018-12-23T05:57:52.162Z,8.98
2018-12-23T05:58:52.755Z,9.10
2018-12-23T05:59:53.355Z,9.08
2018-12-23T06:00:53.957Z,9.11
2018-12-23T06:01:54.552Z,9.12
2018-12-23T06:02:55.152Z,9.06
2018-12-23T06:03:55.751Z,9.12
2018-12-23T06:04:56.346Z,9.12
2018-12-23T06:05:56.940Z,9.08
2018-12-23T06:07:01.048Z,9.08
2018-12-23T06:07:59.115Z,9.06
2018-12-23T06:08:59.710Z,9.06
2018-12-23T06:10:00.300Z,9.00
2018-12-23T06:11:00.900Z,8.96
2018-12-23T06:12:01.493Z,9.04
2018-12-23T06:13:02.082Z,8.98
2018-12-23T06:14:02.677Z,9.08
2018-12-23T06:15:03.274Z,8.96
2018-12-23T06:16:03.867Z,8.95
2018-12-23T06:17:04.468Z,8.98
2018-12-23T06:18:05.066Z,8.91
2018-12-23T06:19:05.661Z,8.98
2018-12-23T06:20:06.259Z,8.95
2018-12-23T06:21:06.857Z,9.11
2018-12-23T06:22:07.457Z,9.08
2018-12-23T06:23:08.054Z,8.95
2018-12-23T06:24:08.652Z,9.06
2018-12-23T06:25:09.250Z,9.11
2018-12-23T06:26:09.849Z,8.92
2018-12-23T06:27:10.445Z,8.89
2018-12-23T06:28:11.037Z,8.96
2018-12-23T06:29:11.634Z,9.06
2018-12-23T06:30:12.232Z,8.95
2018-12-23T06:31:12.837Z,9.01
2018-12-23T06:32:13.428Z,8.91
2018-12-23T06:33:14.026Z,8.96
2018-12-23T06:34:14.615Z,9.10
2018-12-23T06:35:15.207Z,9.00
2018-12-23T06:36:15.798Z,9.00
2018-12-23T06:37:16.399Z,9.06
2018-12-23T06:38:16.994Z,9.01
2018-12-23T06:39:17.593Z,9.10
2018-12-23T06:40:18.185Z,9.11
2018-12-23T06:41:18.785Z,9.08
2018-12-23T06:42:19.376Z,9.04
2018-12-23T06:43:19.960Z,9.11
2018-12-23T06:44:20.571Z,9.08
2018-12-23T06:45:21.157Z,9.11
2018-12-23T06:46:21.754Z,9.19
2018-12-23T06:47:22.353Z,9.08
2018-12-23T06:48:22.952Z,9.15
2018-12-23T06:49:23.550Z,9.08
2018-12-23T06:50:24.140Z,9.25
2018-12-23T06:51:24.729Z,9.26
2018-12-23T06:52:25.333Z,9.10
2018-12-23T06:53:25.925Z,9.19
2018-12-23T06:54:26.524Z,9.15
2018-12-23T06:55:27.114Z,9.20
2018-12-23T06:56:27.711Z,9.12
2018-12-23T06:57:28.308Z,9.10
2018-12-23T06:58:28.901Z,9.17
2018-12-23T06:59:29.495Z,9.15
2018-12-23T07:00:30.094Z,9.12
2018-12-23T07:01:30.681Z,9.15
2018-12-23T07:02:31.278Z,9.14
2018-12-23T07:03:31.870Z,9.10
2018-12-23T07:04:34.329Z,9.12
2018-12-23T07:06:17.275Z,9.11
2018-12-23T07:07:18.763Z,9.08
2018-12-23T07:08:18.497Z,9.10
2018-12-23T07:09:19.128Z,9.03
2018-12-23T07:10:19.729Z,9.03
2018-12-23T07:11:20.355Z,9.01
2018-12-23T07:12:20.959Z,9.01
2018-12-23T07:13:21.561Z,9.04
2018-12-23T07:14:22.166Z,9.00
2018-12-23T07:15:22.776Z,9.04
2018-12-23T07:16:23.402Z,8.93
2018-12-23T07:17:24.000Z,8.96
2018-12-23T07:18:24.604Z,8.91
2018-12-23T07:19:25.210Z,9.08
2018-12-23T07:20:25.814Z,8.96
2018-12-23T07:21:26.419Z,9.04
2018-12-23T07:22:27.006Z,8.96
2018-12-23T07:23:27.606Z,8.98
2018-12-23T07:24:28.205Z,9.01
2018-12-23T07:25:28.803Z,8.98
2018-12-23T07:26:29.405Z,9.01
2018-12-23T07:27:29.994Z,9.00
2018-12-23T07:28:30.595Z,9.04
2018-12-23T07:29:31.188Z,9.04
2018-12-23T07:30:31.787Z,9.01
2018-12-23T07:31:32.385Z,9.03
2018-12-23T07:32:32.986Z,9.08
2018-12-23T07:33:33.589Z,9.17
2018-12-23T07:34:34.188Z,9.04
2018-12-23T07:35:34.797Z,8.98
2018-12-23T07:36:35.392Z,9.12
2018-12-23T07:37:35.993Z,8.98
2018-12-23T07:38:36.593Z,8.98
2018-12-23T07:39:37.191Z,9.06
2018-12-23T07:40:37.791Z,8.93
2018-12-23T07:41:38.386Z,9.03
2018-12-23T07:42:38.977Z,9.08
2018-12-23T07:43:39.580Z,9.01
2018-12-23T07:44:40.185Z,9.06
2018-12-23T07:45:40.782Z,9.03
2018-12-23T07:46:41.386Z,9.03
2018-12-23T07:47:42.057Z,9.00
2018-12-23T07:48:42.578Z,9.11
2018-12-23T07:49:43.175Z,9.08
2018-12-23T07:50:43.769Z,9.11
2018-12-23T07:51:44.371Z,9.08
2018-12-23T07:52:44.969Z,9.10
2018-12-23T07:53:45.566Z,9.14
2018-12-23T07:54:46.167Z,9.17
2018-12-23T07:55:46.769Z,9.06
2018-12-23T07:56:47.370Z,9.17
2018-12-23T07:57:47.973Z,9.11
2018-12-23T07:58:48.572Z,9.14
2018-12-23T07:59:49.165Z,9.17
2018-12-23T08:00:49.776Z,9.12
2018-12-23T08:01:50.363Z,9.14
2018-12-23T08:02:50.967Z,9.15
2018-12-23T08:03:51.568Z,9.11
2018-12-23T08:04:52.172Z,9.15
2018-12-23T08:05:52.774Z,9.06
2018-12-23T08:06:53.377Z,9.12
2018-12-23T08:07:53.981Z,9.10
2018-12-23T08:08:54.584Z,9.08
2018-12-23T08:09:55.184Z,9.10
2018-12-23T08:10:55.786Z,9.11
2018-12-23T08:11:56.391Z,9.04
2018-12-23T08:12:56.994Z,9.06
2018-12-23T08:13:57.593Z,9.06
2018-12-23T08:14:58.191Z,9.08
2018-12-23T08:15:58.797Z,9.10
2018-12-23T08:16:59.396Z,9.11
2018-12-23T08:18:00.001Z,9.10
2018-12-23T08:19:00.605Z,9.12
2018-12-23T08:20:01.208Z,9.08
2018-12-23T08:21:01.807Z,9.10
2018-12-23T08:22:02.399Z,9.10
2018-12-23T08:23:03.001Z,9.10
2018-12-23T08:24:03.606Z,9.06
2018-12-23T08:25:04.222Z,9.03
2018-12-23T08:26:04.824Z,9.03
2018-12-23T08:27:05.421Z,9.10
2018-12-23T08:28:06.008Z,9.12
2018-12-23T08:29:06.718Z,9.08
2018-12-23T08:30:07.206Z,9.08
2018-12-23T08:31:07.805Z,9.10
2018-12-23T08:32:08.397Z,9.15
2018-12-23T08:33:08.995Z,9.11
2018-12-23T08:34:09.587Z,9.12
2018-12-23T08:35:10.191Z,9.10
2018-12-23T08:36:10.792Z,9.12
2018-12-23T08:37:11.394Z,9.12
2018-12-23T08:38:11.990Z,9.15
2018-12-23T08:39:12.595Z,9.17
2018-12-23T08:40:13.195Z,9.23
2018-12-23T08:41:13.798Z,9.25
2018-12-23T08:42:14.398Z,9.22
2018-12-23T08:43:14.998Z,9.23
2018-12-23T08:44:15.595Z,9.23
2018-12-23T08:45:16.188Z,9.26
2018-12-23T08:46:16.792Z,9.26
2018-12-23T08:47:17.390Z,9.28
2018-12-23T08:48:17.992Z,9.25
2018-12-23T08:49:18.595Z,9.28
2018-12-23T08:50:19.189Z,9.29
2018-12-23T08:51:19.795Z,9.25
2018-12-23T08:52:20.399Z,9.26
2018-12-23T08:53:20.993Z,9.29
2018-12-23T08:54:21.597Z,9.33
2018-12-23T08:55:22.200Z,9.36
2018-12-23T08:56:22.801Z,9.47
2018-12-23T08:57:23.400Z,9.43
2018-12-23T08:58:24.005Z,9.41
2018-12-23T08:59:24.610Z,9.44
2018-12-23T09:00:25.210Z,9.41
2018-12-23T09:01:25.815Z,9.45
2018-12-23T09:02:26.416Z,9.45
2018-12-23T09:03:27.019Z,9.48
2018-12-23T09:04:27.616Z,9.51
2018-12-23T09:05:28.223Z,9.45
2018-12-23T09:06:28.817Z,9.58
2018-12-23T09:07:29.415Z,9.51
2018-12-23T09:08:30.014Z,9.54
2018-12-23T09:09:30.620Z,9.51
2018-12-23T09:10:31.214Z,9.58
2018-12-23T09:11:31.820Z,9.61
2018-12-23T09:12:32.428Z,9.53
2018-12-23T09:13:33.023Z,9.62
2018-12-23T09:14:33.626Z,9.59
2018-12-23T09:15:34.229Z,9.62
2018-12-23T09:16:34.830Z,9.53
2018-12-23T09:17:35.430Z,9.65
2018-12-23T09:18:36.036Z,9.53
2018-12-23T09:19:36.631Z,9.62
2018-12-23T09:20:37.238Z,9.65
2018-12-23T09:21:37.839Z,9.63
2018-12-23T09:22:38.446Z,9.68
2018-12-23T09:23:39.048Z,9.68
2018-12-23T09:24:39.652Z,9.59
2018-12-23T09:25:40.255Z,9.59
2018-12-23T09:26:40.853Z,9.62
2018-12-23T09:27:41.457Z,9.63
2018-12-23T09:28:42.062Z,9.63
2018-12-23T09:29:42.665Z,9.65
2018-12-23T09:30:43.263Z,9.71
2018-12-23T09:31:43.864Z,9.69
2018-12-23T09:32:44.523Z,9.65
2018-12-23T09:33:45.074Z,9.69
2018-12-23T09:34:45.675Z,9.61
2018-12-23T09:35:46.286Z,9.71
2018-12-23T09:36:47.873Z,9.63
2018-12-23T09:37:47.488Z,9.83
2018-12-23T09:38:48.097Z,9.66
2018-12-23T09:39:48.701Z,9.74
2018-12-23T09:40:49.299Z,9.74
2018-12-23T09:41:49.903Z,9.69
2018-12-23T09:42:50.498Z,9.72
2018-12-23T09:43:51.100Z,9.79
2018-12-23T09:44:51.708Z,9.68
2018-12-23T09:45:52.310Z,9.76
2018-12-23T09:46:52.918Z,9.72
2018-12-23T09:47:53.517Z,9.79
2018-12-23T09:48:54.112Z,9.87
2018-12-23T09:49:54.712Z,9.79
2018-12-23T09:50:55.311Z,9.81
2018-12-23T09:51:55.915Z,9.80
2018-12-23T09:52:56.517Z,9.84
2018-12-23T09:53:57.119Z,9.86
2018-12-23T09:54:57.717Z,9.80
2018-12-23T09:55:58.320Z,9.90
2018-12-23T09:56:58.919Z,9.80
2018-12-23T09:57:59.520Z,9.86
2018-12-23T09:59:00.124Z,9.79
2018-12-23T10:00:00.726Z,9.86
2018-12-23T10:01:01.325Z,9.86
2018-12-23T10:02:01.929Z,9.91
2018-12-23T10:03:02.541Z,9.88
2018-12-23T10:04:03.143Z,9.84
2018-12-23T10:05:03.754Z,9.91
2018-12-23T10:06:04.344Z,9.94
2018-12-23T10:07:04.939Z,9.86
2018-12-23T10:08:09.957Z,9.87
2018-12-23T10:09:06.140Z,9.80
2018-12-23T10:10:06.738Z,9.86
2018-12-23T10:11:07.335Z,9.81
2018-12-23T10:12:07.938Z,9.90
2018-12-23T10:13:08.543Z,9.87
2018-12-23T10:14:09.147Z,9.90
2018-12-23T10:15:09.751Z,9.94
2018-12-23T10:16:10.348Z,9.96
2018-12-23T10:17:10.953Z,9.96
2018-12-23T10:18:11.557Z,9.81
2018-12-23T10:19:12.160Z,9.84
2018-12-23T10:20:12.764Z,9.95
2018-12-23T10:21:13.355Z,9.95
2018-12-23T10:22:13.958Z,9.90
2018-12-23T10:23:14.564Z,9.84
2018-12-23T10:24:15.164Z,9.81
2018-12-23T10:25:15.760Z,9.83
2018-12-23T10:26:16.362Z,9.81
2018-12-23T10:27:16.980Z,9.84
2018-12-23T10:28:17.572Z,9.91
2018-12-23T10:29:18.175Z,9.86
2018-12-23T10:30:18.779Z,9.88
2018-12-23T10:31:19.376Z,9.83
2018-12-23T10:32:19.977Z,9.86
2018-12-23T10:33:20.571Z,9.87
2018-12-23T10:34:21.178Z,9.94
2018-12-23T10:35:21.781Z,9.88
2018-12-23T10:36:22.373Z,9.83
2018-12-23T10:37:22.974Z,9.87
2018-12-23T10:38:23.565Z,9.88
2018-12-23T10:39:24.169Z,9.87
2018-12-23T10:40:24.768Z,9.87
2018-12-23T10:41:25.494Z,9.81
2018-12-23T10:42:26.095Z,9.95
2018-12-23T10:43:26.690Z,9.91
2018-12-23T10:44:27.295Z,9.90
2018-12-23T10:45:27.906Z,9.98
2018-12-23T10:46:28.499Z,9.98
2018-12-23T10:47:29.092Z,9.99
2018-12-23T10:48:29.697Z,10.02
2018-12-23T10:49:30.301Z,10.08
2018-12-23T10:50:30.908Z,10.08
2018-12-23T10:51:31.512Z,10.06
2018-12-23T10:52:32.118Z,10.04
2018-12-23T10:53:32.719Z,9.99
2018-12-23T10:54:33.313Z,9.98
2018-12-23T10:55:33.918Z,10.05
2018-12-23T10:56:34.512Z,10.01
2018-12-23T10:57:35.109Z,9.99
2018-12-23T10:58:35.710Z,10.01
2018-12-23T10:59:36.313Z,10.01
2018-12-23T11:00:36.919Z,10.01
2018-12-23T11:01:37.524Z,9.98
2018-12-23T11:02:38.129Z,10.06
2018-12-23T11:03:38.724Z,10.01
2018-12-23T11:04:39.334Z,10.04
2018-12-23T11:05:39.932Z,10.01
2018-12-23T11:06:40.540Z,10.12
2018-12-23T11:07:41.143Z,9.96
2018-12-23T11:08:41.752Z,10.02
2018-12-23T11:09:42.355Z,10.02
2018-12-23T11:10:42.964Z,10.02
2018-12-23T11:11:43.566Z,10.04
2018-12-23T11:12:44.173Z,10.02
2018-12-23T11:13:44.777Z,10.08
2018-12-23T11:14:45.381Z,9.96
2018-12-23T11:15:45.984Z,10.05
2018-12-23T11:16:46.588Z,10.06
2018-12-23T11:17:47.194Z,10.04
2018-12-23T11:18:47.790Z,10.04
2018-12-23T11:19:48.403Z,10.05
2018-12-23T11:20:49.001Z,10.05
2018-12-23T11:21:49.598Z,9.98
2018-12-23T11:22:50.199Z,10.05
2018-12-23T11:23:50.809Z,10.05
2018-12-23T11:24:51.399Z,9.98
2018-12-23T11:25:51.995Z,9.98
2018-12-23T11:26:53.860Z,9.94
2018-12-23T11:27:54.189Z,9.90
2018-12-23T11:28:54.793Z,9.95
2018-12-23T11:29:55.400Z,9.90
2018-12-23T11:30:56.007Z,9.91
2018-12-23T11:31:56.606Z,9.95
2018-12-23T11:32:57.209Z,9.87
2018-12-23T11:33:57.797Z,9.94
2018-12-23T11:34:58.401Z,9.90
2018-12-23T11:35:59.009Z,9.95
2018-12-23T11:36:59.607Z,9.86
2018-12-23T11:38:00.202Z,9.95
2018-12-23T11:39:00.800Z,9.81
2018-12-23T11:40:01.706Z,9.95
2018-12-23T11:41:02.204Z,9.90
2018-12-23T11:42:02.808Z,9.94
2018-12-23T11:43:03.415Z,9.90
2018-12-23T11:44:04.004Z,9.96
2018-12-23T11:45:04.605Z,9.88
2018-12-23T11:46:05.204Z,9.84
2018-12-23T11:47:05.809Z,9.96
2018-12-23T11:48:06.416Z,9.84
2018-12-23T11:49:07.018Z,9.95
2018-12-23T11:50:07.618Z,9.95
2018-12-23T11:51:08.220Z,9.98
2018-12-23T11:52:08.815Z,9.91
2018-12-23T11:53:09.412Z,9.94
2018-12-23T11:54:10.015Z,9.91
2018-12-23T11:55:10.618Z,9.94
2018-12-23T11:56:11.220Z,9.95
2018-12-23T11:57:11.828Z,9.95
2018-12-23T11:58:12.466Z,10.01
2018-12-23T11:59:13.028Z,9.91
2018-12-23T12:00:13.633Z,10.02
2018-12-23T12:01:14.237Z,10.04
2018-12-23T12:02:15.395Z,10.02
2018-12-23T12:03:15.441Z,9.94
2018-12-23T12:04:16.037Z,9.98
2018-12-23T12:05:16.656Z,10.05
2018-12-23T12:06:17.255Z,10.02
2018-12-23T12:07:17.857Z,10.02
2018-12-23T12:08:18.459Z,10.01
2018-12-23T12:09:19.065Z,10.05
2018-12-23T12:10:19.668Z,10.04
2018-12-23T12:11:20.374Z,9.98
2018-12-23T12:12:20.873Z,9.94
2018-12-23T12:13:21.476Z,9.94
2018-12-23T12:14:22.079Z,9.94
2018-12-23T12:15:22.673Z,9.94
2018-12-23T12:16:23.272Z,10.01
2018-12-23T12:17:25.292Z,10.02
2018-12-23T12:18:25.463Z,10.04
2018-12-23T12:19:26.071Z,10.02
2018-12-23T12:20:26.669Z,9.90
2018-12-23T12:21:27.262Z,9.99
2018-12-23T12:22:27.858Z,9.95
2018-12-23T12:23:28.463Z,9.86
2018-12-23T12:24:29.066Z,9.88
2018-12-23T12:25:29.667Z,9.87
2018-12-23T12:26:30.275Z,9.94
2018-12-23T12:27:30.878Z,9.90
2018-12-23T12:28:31.480Z,9.87
2018-12-23T12:29:32.087Z,9.83
2018-12-23T12:30:32.694Z,9.86
2018-12-23T12:31:33.290Z,9.80
2018-12-23T12:32:33.884Z,9.87
2018-12-23T12:33:34.487Z,9.90
2018-12-23T12:34:35.093Z,9.87
2018-12-23T12:35:35.693Z,9.84
2018-12-23T12:36:36.295Z,9.83
2018-12-23T12:37:36.901Z,9.88
2018-12-23T12:38:37.504Z,9.88
2018-12-23T12:39:38.099Z,9.81
2018-12-23T12:40:38.699Z,9.88
2018-12-23T12:41:39.302Z,9.77
2018-12-23T12:42:39.903Z,9.86
2018-12-23T12:43:40.508Z,9.84
2018-12-23T12:44:41.114Z,9.71
2018-12-23T12:45:41.713Z,9.74
2018-12-23T12:46:42.315Z,9.76
2018-12-23T12:47:42.919Z,9.72
2018-12-23T12:48:43.529Z,9.69
2018-12-23T12:49:44.132Z,9.74
2018-12-23T12:50:44.737Z,9.62
2018-12-23T12:51:45.339Z,9.72
2018-12-23T12:52:45.935Z,9.61
2018-12-23T12:53:46.538Z,9.69
2018-12-23T12:54:47.141Z,9.69
2018-12-23T12:55:47.742Z,9.68
2018-12-23T12:56:48.350Z,9.58
2018-12-23T12:57:48.953Z,9.61
2018-12-23T12:58:49.548Z,9.56
2018-12-23T12:59:50.156Z,9.47
2018-12-23T13:00:50.764Z,9.47
2018-12-23T13:01:51.369Z,9.38
2018-12-23T13:02:51.972Z,9.45
2018-12-23T13:03:52.579Z,9.56
2018-12-23T13:04:53.184Z,9.51
2018-12-23T13:05:53.791Z,9.47
2018-12-23T13:06:54.387Z,9.41
2018-12-23T13:07:54.991Z,9.41
2018-12-23T13:09:00.459Z,9.29
2018-12-23T13:09:56.195Z,9.36
2018-12-23T13:10:56.797Z,9.38
2018-12-23T13:11:57.401Z,9.30
2018-12-23T13:12:58.001Z,9.33
2018-12-23T13:13:58.604Z,9.33
2018-12-23T13:14:59.207Z,9.23
2018-12-23T13:15:59.810Z,9.26
2018-12-23T13:17:00.411Z,9.25
2018-12-23T13:18:01.019Z,9.23
2018-12-23T13:19:01.616Z,9.25
2018-12-23T13:20:02.223Z,9.19
2018-12-23T13:21:02.822Z,9.10
2018-12-23T13:22:03.428Z,9.22
2018-12-23T13:23:04.057Z,9.17
2018-12-23T13:24:04.632Z,9.14
2018-12-23T13:25:05.248Z,9.08
2018-12-23T13:26:05.838Z,9.04
2018-12-23T13:27:06.437Z,9.04